sensor_id;sensor_type;location;lat;lon;timestamp;temperature;humidity
21540;DHT22;10931;52.164;5.518;2022-09-14T00:04:27;25.20;62.10
21540;DHT22;10931;52.164;5.518;2022-09-14T00:09:40;25.10;62.00
21540;DHT22;10931;52.164;5.518;2022-09-14T00:15:17;25.10;62.00
21540;DHT22;10931;52.164;5.518;2022-09-14T00:20:49;25.10;62.00
21540;DHT22;10931;52.164;5.518;2022-09-14T00:23:22;25.10;62.00
21540;DHT22;10931;52.164;5.518;2022-09-14T00:26:03;25.10;62.00
21540;DHT22;10931;52.164;5.518;2022-09-14T00:28:45;25.10;62.00
21540;DHT22;10931;52.164;5.518;2022-09-14T00:31:34;25.00;61.90
21540;DHT22;10931;52.164;5.518;2022-09-14T00:34:18;25.10;62.00
21540;DHT22;10931;52.164;5.518;2022-09-14T00:36:54;25.10;62.00
21540;DHT22;10931;52.164;5.518;2022-09-14T00:39:26;25.10;62.00
21540;DHT22;10931;52.164;5.518;2022-09-14T00:42:09;25.10;62.00
21540;DHT22;10931;52.164;5.518;2022-09-14T00:47:15;25.00;61.90
21540;DHT22;10931;52.164;5.518;2022-09-14T00:50:01;25.00;61.90
21540;DHT22;10931;52.164;5.518;2022-09-14T00:52:31;25.00;61.90
21540;DHT22;10931;52.164;5.518;2022-09-14T00:55:17;25.00;61.90
21540;DHT22;10931;52.164;5.518;2022-09-14T00:57:47;25.00;61.90
21540;DHT22;10931;52.164;5.518;2022-09-14T01:00:23;25.00;61.90
21540;DHT22;10931;52.164;5.518;2022-09-14T01:02:59;25.00;61.90
21540;DHT22;10931;52.164;5.518;2022-09-14T01:18:35;25.00;61.90
21540;DHT22;10931;52.164;5.518;2022-09-14T01:21:32;24.90;61.80
21540;DHT22;10931;52.164;5.518;2022-09-14T01:24:26;25.00;61.90
21540;DHT22;10931;52.164;5.518;2022-09-14T01:29:46;24.90;61.80
21540;DHT22;10931;52.164;5.518;2022-09-14T01:32:19;24.90;61.80
21540;DHT22;10931;52.164;5.518;2022-09-14T01:38:21;24.90;61.80
21540;DHT22;10931;52.164;5.518;2022-09-14T01:44:26;24.90;61.80
21540;DHT22;10931;52.164;5.518;2022-09-14T01:46:58;24.90;61.80
21540;DHT22;10931;52.164;5.518;2022-09-14T01:52:04;24.90;61.80
21540;DHT22;10931;52.164;5.518;2022-09-14T01:58:21;24.80;61.80
21540;DHT22;10931;52.164;5.518;2022-09-14T02:00:56;24.80;61.80
21540;DHT22;10931;52.164;5.518;2022-09-14T02:03:37;24.80;61.80
21540;DHT22;10931;52.164;5.518;2022-09-14T02:06:35;24.80;61.80
21540;DHT22;10931;52.164;5.518;2022-09-14T02:09:04;24.80;61.80
21540;DHT22;10931;52.164;5.518;2022-09-14T02:11:40;24.80;61.80
21540;DHT22;10931;52.164;5.518;2022-09-14T02:14:25;24.80;61.80
21540;DHT22;10931;52.164;5.518;2022-09-14T02:16:51;24.80;61.80
21540;DHT22;10931;52.164;5.518;2022-09-14T02:19:17;24.80;61.80
21540;DHT22;10931;52.164;5.518;2022-09-14T02:22:03;24.80;61.80
21540;DHT22;10931;52.164;5.518;2022-09-14T02:24:51;24.80;61.80
21540;DHT22;10931;52.164;5.518;2022-09-14T02:27:42;24.80;61.80
21540;DHT22;10931;52.164;5.518;2022-09-14T02:30:23;24.80;61.80
21540;DHT22;10931;52.164;5.518;2022-09-14T02:33:30;24.80;61.80
21540;DHT22;10931;52.164;5.518;2022-09-14T02:36:06;24.80;61.80
21540;DHT22;10931;52.164;5.518;2022-09-14T02:39:00;24.80;61.80
21540;DHT22;10931;52.164;5.518;2022-09-14T02:47:46;24.70;61.70
21540;DHT22;10931;52.164;5.518;2022-09-14T02:50:35;24.70;61.70
21540;DHT22;10931;52.164;5.518;2022-09-14T02:53:28;24.70;61.70
21540;DHT22;10931;52.164;5.518;2022-09-14T02:56:02;24.70;61.70
21540;DHT22;10931;52.164;5.518;2022-09-14T02:58:39;24.70;61.80
21540;DHT22;10931;52.164;5.518;2022-09-14T03:01:21;24.70;61.70
21540;DHT22;10931;52.164;5.518;2022-09-14T03:06:47;24.70;61.70
21540;DHT22;10931;52.164;5.518;2022-09-14T03:09:13;24.70;61.70
21540;DHT22;10931;52.164;5.518;2022-09-14T03:12:09;24.70;61.70
21540;DHT22;10931;52.164;5.518;2022-09-14T03:14:37;24.60;61.70
21540;DHT22;10931;52.164;5.518;2022-09-14T03:17:23;24.60;61.70
21540;DHT22;10931;52.164;5.518;2022-09-14T03:19:52;24.60;61.70
21540;DHT22;10931;52.164;5.518;2022-09-14T03:22:46;24.60;61.70
21540;DHT22;10931;52.164;5.518;2022-09-14T03:25:15;24.60;61.70
21540;DHT22;10931;52.164;5.518;2022-09-14T03:28:08;24.60;61.70
21540;DHT22;10931;52.164;5.518;2022-09-14T03:33:06;24.60;61.70
21540;DHT22;10931;52.164;5.518;2022-09-14T03:35:35;24.60;61.70
21540;DHT22;10931;52.164;5.518;2022-09-14T03:38:12;24.60;61.70
21540;DHT22;10931;52.164;5.518;2022-09-14T03:40:55;24.60;61.70
21540;DHT22;10931;52.164;5.518;2022-09-14T03:43:35;24.60;61.70
21540;DHT22;10931;52.164;5.518;2022-09-14T03:46:08;24.60;61.70
21540;DHT22;10931;52.164;5.518;2022-09-14T03:48:48;24.60;61.70
21540;DHT22;10931;52.164;5.518;2022-09-14T03:51:24;24.60;61.70
21540;DHT22;10931;52.164;5.518;2022-09-14T03:56:55;24.50;61.60
21540;DHT22;10931;52.164;5.518;2022-09-14T03:59:31;24.60;61.70
21540;DHT22;10931;52.164;5.518;2022-09-14T04:02:02;24.50;61.60
21540;DHT22;10931;52.164;5.518;2022-09-14T04:05:10;24.50;61.60
21540;DHT22;10931;52.164;5.518;2022-09-14T04:07:36;24.50;61.70
21540;DHT22;10931;52.164;5.518;2022-09-14T04:10:24;24.50;61.60
21540;DHT22;10931;52.164;5.518;2022-09-14T04:12:53;24.50;61.70
21540;DHT22;10931;52.164;5.518;2022-09-14T04:15:22;24.50;61.60
21540;DHT22;10931;52.164;5.518;2022-09-14T04:17:53;24.50;61.60
21540;DHT22;10931;52.164;5.518;2022-09-14T04:20:21;24.50;61.60
21540;DHT22;10931;52.164;5.518;2022-09-14T04:25:37;24.50;61.60
21540;DHT22;10931;52.164;5.518;2022-09-14T04:28:03;24.50;61.60
21540;DHT22;10931;52.164;5.518;2022-09-14T04:30:52;24.50;61.60
21540;DHT22;10931;52.164;5.518;2022-09-14T04:33:20;24.50;61.70
21540;DHT22;10931;52.164;5.518;2022-09-14T04:36:08;24.50;61.60
21540;DHT22;10931;52.164;5.518;2022-09-14T04:38:51;24.40;61.60
21540;DHT22;10931;52.164;5.518;2022-09-14T04:41:27;24.50;61.70
21540;DHT22;10931;52.164;5.518;2022-09-14T04:43:55;24.50;61.70
21540;DHT22;10931;52.164;5.518;2022-09-14T04:46:27;24.40;61.50
21540;DHT22;10931;52.164;5.518;2022-09-14T04:48:59;24.40;61.60
21540;DHT22;10931;52.164;5.518;2022-09-14T04:51:31;24.40;61.50
21540;DHT22;10931;52.164;5.518;2022-09-14T04:54:11;24.40;61.60
21540;DHT22;10931;52.164;5.518;2022-09-14T04:56:37;24.40;61.60
21540;DHT22;10931;52.164;5.518;2022-09-14T04:59:17;24.40;61.60
21540;DHT22;10931;52.164;5.518;2022-09-14T05:02:14;24.40;61.60
21540;DHT22;10931;52.164;5.518;2022-09-14T05:04:50;24.40;61.60
21540;DHT22;10931;52.164;5.518;2022-09-14T05:07:16;24.40;61.60
21540;DHT22;10931;52.164;5.518;2022-09-14T05:10:15;24.40;61.60
21540;DHT22;10931;52.164;5.518;2022-09-14T05:12:46;24.40;61.60
21540;DHT22;10931;52.164;5.518;2022-09-14T05:15:13;24.40;61.60
21540;DHT22;10931;52.164;5.518;2022-09-14T05:17:44;24.40;61.60
21540;DHT22;10931;52.164;5.518;2022-09-14T05:20:10;24.40;61.60
21540;DHT22;10931;52.164;5.518;2022-09-14T05:22:48;24.40;61.60
21540;DHT22;10931;52.164;5.518;2022-09-14T05:25:37;24.40;61.60
21540;DHT22;10931;52.164;5.518;2022-09-14T05:28:15;24.30;61.50
21540;DHT22;10931;52.164;5.518;2022-09-14T05:30:43;24.30;61.50
21540;DHT22;10931;52.164;5.518;2022-09-14T05:33:18;24.30;61.50
21540;DHT22;10931;52.164;5.518;2022-09-14T05:36:20;24.30;61.60
21540;DHT22;10931;52.164;5.518;2022-09-14T05:39:32;24.30;61.60
21540;DHT22;10931;52.164;5.518;2022-09-14T05:45:05;24.30;61.50
21540;DHT22;10931;52.164;5.518;2022-09-14T05:47:42;24.30;61.80
21540;DHT22;10931;52.164;5.518;2022-09-14T05:50:08;24.30;61.50
21540;DHT22;10931;52.164;5.518;2022-09-14T05:52:45;24.30;61.60
21540;DHT22;10931;52.164;5.518;2022-09-14T05:55:19;24.30;61.60
21540;DHT22;10931;52.164;5.518;2022-09-14T05:58:19;24.20;61.50
21540;DHT22;10931;52.164;5.518;2022-09-14T06:10:02;24.20;61.50
21540;DHT22;10931;52.164;5.518;2022-09-14T06:12:28;24.20;61.50
21540;DHT22;10931;52.164;5.518;2022-09-14T06:14:58;24.20;61.50
21540;DHT22;10931;52.164;5.518;2022-09-14T06:17:31;24.20;61.50
21540;DHT22;10931;52.164;5.518;2022-09-14T06:19:57;24.20;61.50
21540;DHT22;10931;52.164;5.518;2022-09-14T06:22:30;24.20;61.50
21540;DHT22;10931;52.164;5.518;2022-09-14T06:24:58;24.20;61.50
21540;DHT22;10931;52.164;5.518;2022-09-14T06:27:29;24.20;61.50
21540;DHT22;10931;52.164;5.518;2022-09-14T06:29:57;24.20;61.60
21540;DHT22;10931;52.164;5.518;2022-09-14T06:32:23;24.20;61.50
21540;DHT22;10931;52.164;5.518;2022-09-14T06:37:48;24.20;61.50
21540;DHT22;10931;52.164;5.518;2022-09-14T06:40:14;24.20;61.50
21540;DHT22;10931;52.164;5.518;2022-09-14T06:42:40;24.20;61.60
21540;DHT22;10931;52.164;5.518;2022-09-14T06:45:24;24.20;61.60
21540;DHT22;10931;52.164;5.518;2022-09-14T06:50:29;24.20;61.50
21540;DHT22;10931;52.164;5.518;2022-09-14T06:53:08;24.10;61.50
21540;DHT22;10931;52.164;5.518;2022-09-14T06:55:36;24.10;61.50
21540;DHT22;10931;52.164;5.518;2022-09-14T06:58:07;24.10;61.50
21540;DHT22;10931;52.164;5.518;2022-09-14T07:03:29;24.10;61.50
21540;DHT22;10931;52.164;5.518;2022-09-14T07:06:12;24.10;61.50
21540;DHT22;10931;52.164;5.518;2022-09-14T07:08:38;24.10;61.50
21540;DHT22;10931;52.164;5.518;2022-09-14T07:11:05;24.10;61.50
21540;DHT22;10931;52.164;5.518;2022-09-14T07:13:32;24.10;61.50
21540;DHT22;10931;52.164;5.518;2022-09-14T07:15:58;24.10;61.50
21540;DHT22;10931;52.164;5.518;2022-09-14T07:18:31;24.10;61.50
21540;DHT22;10931;52.164;5.518;2022-09-14T07:21:09;24.00;61.50
21540;DHT22;10931;52.164;5.518;2022-09-14T07:23:54;24.10;61.50
21540;DHT22;10931;52.164;5.518;2022-09-14T07:26:28;24.00;61.50
21540;DHT22;10931;52.164;5.518;2022-09-14T07:29:14;24.10;61.60
21540;DHT22;10931;52.164;5.518;2022-09-14T07:32:02;24.00;61.50
21540;DHT22;10931;52.164;5.518;2022-09-14T07:34:41;24.10;61.50
21540;DHT22;10931;52.164;5.518;2022-09-14T07:37:10;24.00;61.50
21540;DHT22;10931;52.164;5.518;2022-09-14T07:42:25;24.10;61.50
21540;DHT22;10931;52.164;5.518;2022-09-14T07:45:20;24.00;61.50
21540;DHT22;10931;52.164;5.518;2022-09-14T07:47:59;24.00;61.50
21540;DHT22;10931;52.164;5.518;2022-09-14T07:50:30;24.00;61.50
21540;DHT22;10931;52.164;5.518;2022-09-14T07:53:01;24.00;61.50
21540;DHT22;10931;52.164;5.518;2022-09-14T07:56:04;24.00;61.50
21540;DHT22;10931;52.164;5.518;2022-09-14T07:58:40;24.00;61.50
21540;DHT22;10931;52.164;5.518;2022-09-14T08:01:21;24.00;61.50
21540;DHT22;10931;52.164;5.518;2022-09-14T08:03:55;24.00;61.50
21540;DHT22;10931;52.164;5.518;2022-09-14T08:06:51;24.00;61.60
21540;DHT22;10931;52.164;5.518;2022-09-14T08:09:22;24.00;61.50
21540;DHT22;10931;52.164;5.518;2022-09-14T08:12:30;24.00;61.50
21540;DHT22;10931;52.164;5.518;2022-09-14T08:15:30;24.00;61.50
21540;DHT22;10931;52.164;5.518;2022-09-14T08:18:08;24.00;61.50
21540;DHT22;10931;52.164;5.518;2022-09-14T08:21:03;24.00;61.50
21540;DHT22;10931;52.164;5.518;2022-09-14T08:23:58;24.00;61.50
21540;DHT22;10931;52.164;5.518;2022-09-14T08:26:39;24.00;61.50
21540;DHT22;10931;52.164;5.518;2022-09-14T08:29:19;23.90;61.50
21540;DHT22;10931;52.164;5.518;2022-09-14T08:31:53;23.90;61.50
21540;DHT22;10931;52.164;5.518;2022-09-14T08:34:22;23.90;61.50
21540;DHT22;10931;52.164;5.518;2022-09-14T08:36:50;24.00;61.60
21540;DHT22;10931;52.164;5.518;2022-09-14T08:39:47;23.90;61.50
21540;DHT22;10931;52.164;5.518;2022-09-14T08:42:22;24.00;61.60
21540;DHT22;10931;52.164;5.518;2022-09-14T08:45:00;23.90;61.50
21540;DHT22;10931;52.164;5.518;2022-09-14T08:51:36;24.00;61.60
21540;DHT22;10931;52.164;5.518;2022-09-14T08:54:23;23.90;61.50
21540;DHT22;10931;52.164;5.518;2022-09-14T09:06:59;23.90;61.50
21540;DHT22;10931;52.164;5.518;2022-09-14T09:09:59;23.90;61.50
21540;DHT22;10931;52.164;5.518;2022-09-14T09:12:57;23.90;61.60
21540;DHT22;10931;52.164;5.518;2022-09-14T09:21:29;23.90;61.60
21540;DHT22;10931;52.164;5.518;2022-09-14T09:24:38;23.90;61.60
21540;DHT22;10931;52.164;5.518;2022-09-14T09:27:40;23.90;61.70
21540;DHT22;10931;52.164;5.518;2022-09-14T09:30:28;23.90;61.60
21540;DHT22;10931;52.164;5.518;2022-09-14T09:32:56;23.80;61.60
21540;DHT22;10931;52.164;5.518;2022-09-14T09:35:45;23.90;61.60
21540;DHT22;10931;52.164;5.518;2022-09-14T09:38:30;23.80;61.60
21540;DHT22;10931;52.164;5.518;2022-09-14T09:41:22;23.80;61.60
21540;DHT22;10931;52.164;5.518;2022-09-14T09:44:02;23.80;61.60
21540;DHT22;10931;52.164;5.518;2022-09-14T09:46:52;23.80;61.60
21540;DHT22;10931;52.164;5.518;2022-09-14T09:49:36;23.80;61.60
21540;DHT22;10931;52.164;5.518;2022-09-14T09:52:22;23.80;61.60
21540;DHT22;10931;52.164;5.518;2022-09-14T09:54:58;23.80;61.70
21540;DHT22;10931;52.164;5.518;2022-09-14T09:57:36;23.80;61.70
21540;DHT22;10931;52.164;5.518;2022-09-14T10:00:25;23.80;61.60
21540;DHT22;10931;52.164;5.518;2022-09-14T10:03:34;23.80;61.70
21540;DHT22;10931;52.164;5.518;2022-09-14T10:06:27;23.80;61.60
21540;DHT22;10931;52.164;5.518;2022-09-14T10:12:38;23.80;61.70
21540;DHT22;10931;52.164;5.518;2022-09-14T10:15:34;23.80;61.70
21540;DHT22;10931;52.164;5.518;2022-09-14T10:18:18;23.80;61.70
21540;DHT22;10931;52.164;5.518;2022-09-14T10:27:09;23.80;61.70
21540;DHT22;10931;52.164;5.518;2022-09-14T10:30:22;23.80;61.70
21540;DHT22;10931;52.164;5.518;2022-09-14T10:33:21;23.80;61.70
21540;DHT22;10931;52.164;5.518;2022-09-14T10:36:23;23.80;61.70
21540;DHT22;10931;52.164;5.518;2022-09-14T10:44:57;23.80;61.70
21540;DHT22;10931;52.164;5.518;2022-09-14T10:48:05;23.80;61.70
21540;DHT22;10931;52.164;5.518;2022-09-14T11:01:52;23.80;61.80
21540;DHT22;10931;52.164;5.518;2022-09-14T11:15:47;23.80;61.80
21540;DHT22;10931;52.164;5.518;2022-09-14T11:18:25;23.80;61.80
21540;DHT22;10931;52.164;5.518;2022-09-14T11:26:59;23.80;61.80
21540;DHT22;10931;52.164;5.518;2022-09-14T11:30:08;23.80;61.80
21540;DHT22;10931;52.164;5.518;2022-09-14T11:35:40;23.80;61.80
21540;DHT22;10931;52.164;5.518;2022-09-14T11:38:20;23.80;61.80
21540;DHT22;10931;52.164;5.518;2022-09-14T11:41:09;23.80;61.80
21540;DHT22;10931;52.164;5.518;2022-09-14T11:43:56;23.80;61.80
21540;DHT22;10931;52.164;5.518;2022-09-14T11:46:34;23.80;61.90
21540;DHT22;10931;52.164;5.518;2022-09-14T11:49:29;23.80;62.00
21540;DHT22;10931;52.164;5.518;2022-09-14T11:52:06;23.80;62.00
21540;DHT22;10931;52.164;5.518;2022-09-14T11:54:39;23.80;62.00
21540;DHT22;10931;52.164;5.518;2022-09-14T11:57:25;23.80;62.00
21540;DHT22;10931;52.164;5.518;2022-09-14T12:12:49;23.80;62.10
21540;DHT22;10931;52.164;5.518;2022-09-14T12:28:52;23.80;62.30
21540;DHT22;10931;52.164;5.518;2022-09-14T12:31:58;23.80;62.40
21540;DHT22;10931;52.164;5.518;2022-09-14T12:34:27;23.80;62.50
21540;DHT22;10931;52.164;5.518;2022-09-14T12:37:27;23.80;62.50
21540;DHT22;10931;52.164;5.518;2022-09-14T12:42:50;23.80;62.60
21540;DHT22;10931;52.164;5.518;2022-09-14T12:51:49;23.80;62.70
21540;DHT22;10931;52.164;5.518;2022-09-14T12:54:47;23.80;62.70
21540;DHT22;10931;52.164;5.518;2022-09-14T12:57:28;23.80;62.70
21540;DHT22;10931;52.164;5.518;2022-09-14T13:00:16;23.80;63.50
21540;DHT22;10931;52.164;5.518;2022-09-14T13:03:54;23.80;62.80
21540;DHT22;10931;52.164;5.518;2022-09-14T13:05:52;23.80;62.80
21540;DHT22;10931;52.164;5.518;2022-09-14T13:08:28;23.80;62.80
21540;DHT22;10931;52.164;5.518;2022-09-14T13:10:58;23.80;62.80
21540;DHT22;10931;52.164;5.518;2022-09-14T13:16:41;23.80;62.80
21540;DHT22;10931;52.164;5.518;2022-09-14T13:19:31;23.70;62.60
21540;DHT22;10931;52.164;5.518;2022-09-14T13:22:20;23.70;62.60
21540;DHT22;10931;52.164;5.518;2022-09-14T13:24:48;23.80;62.70
21540;DHT22;10931;52.164;5.518;2022-09-14T13:27:35;23.70;62.60
21540;DHT22;10931;52.164;5.518;2022-09-14T13:30:21;23.70;62.70
21540;DHT22;10931;52.164;5.518;2022-09-14T13:32:55;23.70;62.70
21540;DHT22;10931;52.164;5.518;2022-09-14T13:35:52;23.70;62.70
21540;DHT22;10931;52.164;5.518;2022-09-14T13:38:52;23.70;62.70
21540;DHT22;10931;52.164;5.518;2022-09-14T13:41:26;23.70;62.60
21540;DHT22;10931;52.164;5.518;2022-09-14T13:43:54;23.70;62.60
21540;DHT22;10931;52.164;5.518;2022-09-14T13:46:24;23.70;62.60
21540;DHT22;10931;52.164;5.518;2022-09-14T13:48:52;23.70;62.70
21540;DHT22;10931;52.164;5.518;2022-09-14T13:51:23;23.70;62.60
21540;DHT22;10931;52.164;5.518;2022-09-14T13:53:51;23.70;62.60
21540;DHT22;10931;52.164;5.518;2022-09-14T13:56:24;23.70;62.60
21540;DHT22;10931;52.164;5.518;2022-09-14T13:59:15;23.70;62.50
21540;DHT22;10931;52.164;5.518;2022-09-14T14:01:56;23.60;62.50
21540;DHT22;10931;52.164;5.518;2022-09-14T14:07:20;23.70;62.50
21540;DHT22;10931;52.164;5.518;2022-09-14T14:09:53;23.60;62.40
21540;DHT22;10931;52.164;5.518;2022-09-14T14:12:26;23.70;62.50
21540;DHT22;10931;52.164;5.518;2022-09-14T14:17:54;23.70;62.50
21540;DHT22;10931;52.164;5.518;2022-09-14T14:28:12;23.70;62.60
21540;DHT22;10931;52.164;5.518;2022-09-14T14:30:39;23.70;62.60
21540;DHT22;10931;52.164;5.518;2022-09-14T14:33:15;23.70;62.70
21540;DHT22;10931;52.164;5.518;2022-09-14T14:35:44;23.60;62.70
21540;DHT22;10931;52.164;5.518;2022-09-14T14:38:45;23.70;62.90
21540;DHT22;10931;52.164;5.518;2022-09-14T14:41:18;23.70;62.90
21540;DHT22;10931;52.164;5.518;2022-09-14T14:43:46;23.70;62.90
21540;DHT22;10931;52.164;5.518;2022-09-14T14:46:14;23.70;62.90
21540;DHT22;10931;52.164;5.518;2022-09-14T14:48:44;23.60;62.90
21540;DHT22;10931;52.164;5.518;2022-09-14T14:51:13;23.70;63.00
21540;DHT22;10931;52.164;5.518;2022-09-14T14:53:48;23.70;62.90
21540;DHT22;10931;52.164;5.518;2022-09-14T14:56:14;23.70;62.90
21540;DHT22;10931;52.164;5.518;2022-09-14T14:58:46;23.70;62.90
21540;DHT22;10931;52.164;5.518;2022-09-14T15:01:18;23.70;62.90
21540;DHT22;10931;52.164;5.518;2022-09-14T15:03:48;23.70;62.80
21540;DHT22;10931;52.164;5.518;2022-09-14T15:06:25;23.70;62.80
21540;DHT22;10931;52.164;5.518;2022-09-14T15:08:56;23.70;62.80
21540;DHT22;10931;52.164;5.518;2022-09-14T15:11:24;23.70;62.70
21540;DHT22;10931;52.164;5.518;2022-09-14T15:14:03;23.70;62.70
21540;DHT22;10931;52.164;5.518;2022-09-14T15:16:31;23.70;62.60
21540;DHT22;10931;52.164;5.518;2022-09-14T15:19:16;23.70;62.60
21540;DHT22;10931;52.164;5.518;2022-09-14T15:21:49;23.70;62.60
21540;DHT22;10931;52.164;5.518;2022-09-14T15:24:19;23.70;62.60
21540;DHT22;10931;52.164;5.518;2022-09-14T15:26:57;23.80;62.60
21540;DHT22;10931;52.164;5.518;2022-09-14T15:32:02;23.70;62.50
21540;DHT22;10931;52.164;5.518;2022-09-14T15:34:27;23.80;62.50
21540;DHT22;10931;52.164;5.518;2022-09-14T15:36:53;23.80;62.50
21540;DHT22;10931;52.164;5.518;2022-09-14T15:39:29;23.80;62.50
21540;DHT22;10931;52.164;5.518;2022-09-14T15:42:16;23.80;62.40
21540;DHT22;10931;52.164;5.518;2022-09-14T15:44:53;23.80;62.40
21540;DHT22;10931;52.164;5.518;2022-09-14T15:47:25;23.80;62.40
21540;DHT22;10931;52.164;5.518;2022-09-14T15:49:56;23.80;62.30
21540;DHT22;10931;52.164;5.518;2022-09-14T15:52:31;23.80;62.30
21540;DHT22;10931;52.164;5.518;2022-09-14T15:55:16;23.80;62.30
21540;DHT22;10931;52.164;5.518;2022-09-14T15:57:47;23.80;62.30
21540;DHT22;10931;52.164;5.518;2022-09-14T16:00:22;23.80;62.40
21540;DHT22;10931;52.164;5.518;2022-09-14T16:06:16;23.80;62.30
21540;DHT22;10931;52.164;5.518;2022-09-14T16:08:50;23.80;62.30
21540;DHT22;10931;52.164;5.518;2022-09-14T16:11:15;23.80;62.30
21540;DHT22;10931;52.164;5.518;2022-09-14T16:13:44;23.80;62.30
21540;DHT22;10931;52.164;5.518;2022-09-14T16:16:12;23.90;62.30
21540;DHT22;10931;52.164;5.518;2022-09-14T16:18:57;23.90;62.30
21540;DHT22;10931;52.164;5.518;2022-09-14T16:21:29;23.90;62.30
21540;DHT22;10931;52.164;5.518;2022-09-14T16:24:00;23.90;62.30
21540;DHT22;10931;52.164;5.518;2022-09-14T16:26:35;23.90;62.30
21540;DHT22;10931;52.164;5.518;2022-09-14T16:29:05;23.90;62.30
21540;DHT22;10931;52.164;5.518;2022-09-14T16:31:35;23.90;62.30
21540;DHT22;10931;52.164;5.518;2022-09-14T16:34:04;23.90;62.30
21540;DHT22;10931;52.164;5.518;2022-09-14T16:36:33;23.90;62.30
21540;DHT22;10931;52.164;5.518;2022-09-14T16:39:04;23.90;62.30
21540;DHT22;10931;52.164;5.518;2022-09-14T16:41:30;23.90;62.30
21540;DHT22;10931;52.164;5.518;2022-09-14T16:44:02;23.90;62.20
21540;DHT22;10931;52.164;5.518;2022-09-14T16:46:29;23.90;62.20
21540;DHT22;10931;52.164;5.518;2022-09-14T16:48:56;23.90;62.10
21540;DHT22;10931;52.164;5.518;2022-09-14T16:51:31;23.90;62.10
21540;DHT22;10931;52.164;5.518;2022-09-14T16:54:19;23.90;62.10
21540;DHT22;10931;52.164;5.518;2022-09-14T16:56:46;23.90;62.10
21540;DHT22;10931;52.164;5.518;2022-09-14T16:59:12;24.00;62.10
21540;DHT22;10931;52.164;5.518;2022-09-14T17:01:40;23.90;62.10
21540;DHT22;10931;52.164;5.518;2022-09-14T17:04:15;24.00;62.10
21540;DHT22;10931;52.164;5.518;2022-09-14T17:06:47;23.90;62.00
21540;DHT22;10931;52.164;5.518;2022-09-14T17:09:41;24.00;62.10
21540;DHT22;10931;52.164;5.518;2022-09-14T17:12:08;23.90;62.10
21540;DHT22;10931;52.164;5.518;2022-09-14T17:14:34;24.00;62.10
21540;DHT22;10931;52.164;5.518;2022-09-14T17:17:02;24.00;62.10
21540;DHT22;10931;52.164;5.518;2022-09-14T17:30:10;24.00;62.10
21540;DHT22;10931;52.164;5.518;2022-09-14T17:32:44;24.00;62.10
21540;DHT22;10931;52.164;5.518;2022-09-14T17:35:23;24.00;62.10
21540;DHT22;10931;52.164;5.518;2022-09-14T17:37:54;24.00;62.10
21540;DHT22;10931;52.164;5.518;2022-09-14T17:43:32;24.00;62.10
21540;DHT22;10931;52.164;5.518;2022-09-14T17:46:11;24.00;62.10
21540;DHT22;10931;52.164;5.518;2022-09-14T17:48:42;24.00;62.10
21540;DHT22;10931;52.164;5.518;2022-09-14T17:51:14;24.00;62.10
21540;DHT22;10931;52.164;5.518;2022-09-14T17:53:59;24.00;62.10
21540;DHT22;10931;52.164;5.518;2022-09-14T17:59:16;24.00;62.10
21540;DHT22;10931;52.164;5.518;2022-09-14T18:02:10;24.00;62.10
21540;DHT22;10931;52.164;5.518;2022-09-14T18:07:35;24.00;62.10
21540;DHT22;10931;52.164;5.518;2022-09-14T18:19:49;24.00;62.10
21540;DHT22;10931;52.164;5.518;2022-09-14T18:33:58;24.00;62.10
21540;DHT22;10931;52.164;5.518;2022-09-14T18:36:43;24.00;62.10
21540;DHT22;10931;52.164;5.518;2022-09-14T18:39:15;24.00;62.10
21540;DHT22;10931;52.164;5.518;2022-09-14T18:41:56;24.00;62.10
21540;DHT22;10931;52.164;5.518;2022-09-14T18:44:32;24.00;62.10
21540;DHT22;10931;52.164;5.518;2022-09-14T18:47:03;24.00;62.10
21540;DHT22;10931;52.164;5.518;2022-09-14T18:53:19;24.00;62.10
21540;DHT22;10931;52.164;5.518;2022-09-14T18:56:15;24.00;62.10
21540;DHT22;10931;52.164;5.518;2022-09-14T18:58:51;24.00;62.10
21540;DHT22;10931;52.164;5.518;2022-09-14T19:01:53;24.00;62.10
21540;DHT22;10931;52.164;5.518;2022-09-14T19:04:59;24.00;62.20
21540;DHT22;10931;52.164;5.518;2022-09-14T19:07:30;24.00;62.10
21540;DHT22;10931;52.164;5.518;2022-09-14T19:10:05;24.00;62.10
21540;DHT22;10931;52.164;5.518;2022-09-14T19:15:36;24.00;62.10
21540;DHT22;10931;52.164;5.518;2022-09-14T19:18:19;24.00;62.20
21540;DHT22;10931;52.164;5.518;2022-09-14T19:20:45;24.00;62.20
21540;DHT22;10931;52.164;5.518;2022-09-14T19:23:34;24.00;62.20
21540;DHT22;10931;52.164;5.518;2022-09-14T19:26:04;23.90;62.10
21540;DHT22;10931;52.164;5.518;2022-09-14T19:30:56;24.00;62.20
21540;DHT22;10931;52.164;5.518;2022-09-14T19:33:22;24.00;62.20
21540;DHT22;10931;52.164;5.518;2022-09-14T19:35:50;24.00;62.10
21540;DHT22;10931;52.164;5.518;2022-09-14T19:38:18;23.90;62.10
21540;DHT22;10931;52.164;5.518;2022-09-14T19:40:51;23.90;62.10
21540;DHT22;10931;52.164;5.518;2022-09-14T19:43:17;24.00;62.10
21540;DHT22;10931;52.164;5.518;2022-09-14T19:45:42;24.00;62.10
21540;DHT22;10931;52.164;5.518;2022-09-14T19:48:08;23.90;62.10
21540;DHT22;10931;52.164;5.518;2022-09-14T19:50:34;23.90;62.00
21540;DHT22;10931;52.164;5.518;2022-09-14T19:52:59;23.90;62.00
21540;DHT22;10931;52.164;5.518;2022-09-14T19:55:25;24.00;62.10
21540;DHT22;10931;52.164;5.518;2022-09-14T19:57:53;24.00;62.10
21540;DHT22;10931;52.164;5.518;2022-09-14T20:00:19;23.90;62.10
21540;DHT22;10931;52.164;5.518;2022-09-14T20:02:45;23.90;62.00
21540;DHT22;10931;52.164;5.518;2022-09-14T20:05:10;23.90;62.00
21540;DHT22;10931;52.164;5.518;2022-09-14T20:07:36;23.90;62.00
21540;DHT22;10931;52.164;5.518;2022-09-14T20:10:02;23.90;62.00
21540;DHT22;10931;52.164;5.518;2022-09-14T20:12:38;23.90;62.00
21540;DHT22;10931;52.164;5.518;2022-09-14T20:15:12;23.90;62.00
21540;DHT22;10931;52.164;5.518;2022-09-14T20:18:00;23.90;62.00
21540;DHT22;10931;52.164;5.518;2022-09-14T20:20:52;23.90;62.00
21540;DHT22;10931;52.164;5.518;2022-09-14T20:23:20;23.90;62.00
21540;DHT22;10931;52.164;5.518;2022-09-14T20:25:46;23.90;62.00
21540;DHT22;10931;52.164;5.518;2022-09-14T20:28:12;23.90;62.00
21540;DHT22;10931;52.164;5.518;2022-09-14T20:30:37;23.90;62.00
21540;DHT22;10931;52.164;5.518;2022-09-14T20:33:03;23.90;62.00
21540;DHT22;10931;52.164;5.518;2022-09-14T20:35:29;23.90;62.00
21540;DHT22;10931;52.164;5.518;2022-09-14T20:37:54;23.90;62.00
21540;DHT22;10931;52.164;5.518;2022-09-14T20:40:20;23.90;62.00
21540;DHT22;10931;52.164;5.518;2022-09-14T20:42:46;23.90;62.00
21540;DHT22;10931;52.164;5.518;2022-09-14T20:45:14;23.90;62.00
21540;DHT22;10931;52.164;5.518;2022-09-14T20:47:42;23.90;62.00
21540;DHT22;10931;52.164;5.518;2022-09-14T20:50:08;23.90;61.90
21540;DHT22;10931;52.164;5.518;2022-09-14T20:52:37;23.90;62.00